DLH24M EDDN-EDDL
Flight info
| Callsign | DLH24M |
|---|---|
| Flight time | 0h 45m |
| Altitude | 24000 |
| Route | SULUS1G SULUS L604 MASEK Z52 ARPEG Z850 ADEMI T854 DOMUX DOMUX1A |
| Aircraft | A319/M-SDE3FGHIRWY/LB1 |
Departure
| Time | 2026-05-07 15:42 |
|---|---|
| Airport | Nuremberg Airport (EDDN) |
Arrival
| Time | 2026-05-07 16:27 |
|---|---|
| Airport | Düsseldorf Airport (EDDL) |
| Time | Latitude | Longitude | Altitude | Speed | Heading |
|---|---|---|---|---|---|
| 2026-05-07 15:06 | 49.49541 | 11.07517 | 1029 ft | 0 kts | 188° |
| 2026-05-07 15:29 | 49.49552 | 11.07519 | 1028 ft | 2 kts | 188° |
| 2026-05-07 15:30 | 49.49563 | 11.07521 | 1029 ft | 2 kts | 188° |
| 2026-05-07 15:30 | 49.49578 | 11.07525 | 1029 ft | 2 kts | 179° |
| 2026-05-07 15:30 | 49.49595 | 11.07520 | 1029 ft | 2 kts | 148° |
| 2026-05-07 15:30 | 49.49601 | 11.07514 | 1028 ft | 2 kts | 138° |
| 2026-05-07 15:31 | 49.49610 | 11.07502 | 1027 ft | 2 kts | 124° |
| 2026-05-07 15:31 | 49.49616 | 11.07486 | 1028 ft | 2 kts | 102° |
| 2026-05-07 15:31 | 49.49615 | 11.07488 | 1027 ft | 1 kts | 101° |
| 2026-05-07 15:31 | 49.49613 | 11.07503 | 1027 ft | 1 kts | 101° |
| 2026-05-07 15:32 | 49.49612 | 11.07510 | 1027 ft | 0 kts | 99° |
| 2026-05-07 15:34 | 49.49612 | 11.07515 | 1027 ft | 1 kts | 99° |
| 2026-05-07 15:35 | 49.49610 | 11.07538 | 1026 ft | 3 kts | 99° |
| 2026-05-07 15:35 | 49.49605 | 11.07579 | 1028 ft | 5 kts | 99° |
| 2026-05-07 15:35 | 49.49600 | 11.07638 | 1027 ft | 7 kts | 98° |
| 2026-05-07 15:35 | 49.49591 | 11.07721 | 1029 ft | 8 kts | 98° |
| 2026-05-07 15:36 | 49.49582 | 11.07815 | 1029 ft | 10 kts | 98° |
| 2026-05-07 15:36 | 49.49571 | 11.07923 | 1027 ft | 10 kts | 98° |
| 2026-05-07 15:36 | 49.49560 | 11.08035 | 1029 ft | 11 kts | 98° |
| 2026-05-07 15:36 | 49.49549 | 11.08153 | 1029 ft | 11 kts | 98° |
| 2026-05-07 15:37 | 49.49537 | 11.08274 | 1029 ft | 12 kts | 98° |
| 2026-05-07 15:37 | 49.49566 | 11.08357 | 1029 ft | 9 kts | 13° |
| 2026-05-07 15:37 | 49.49614 | 11.08403 | 1028 ft | 9 kts | 67° |
| 2026-05-07 15:37 | 49.49608 | 11.08511 | 1029 ft | 11 kts | 98° |
| 2026-05-07 15:38 | 49.49597 | 11.08625 | 1029 ft | 11 kts | 98° |
| 2026-05-07 15:38 | 49.49587 | 11.08733 | 1031 ft | 9 kts | 98° |
| 2026-05-07 15:38 | 49.49577 | 11.08834 | 1034 ft | 10 kts | 98° |
| 2026-05-07 15:38 | 49.49565 | 11.08952 | 1037 ft | 12 kts | 99° |
| 2026-05-07 15:39 | 49.49553 | 11.09074 | 1040 ft | 11 kts | 98° |
| 2026-05-07 15:39 | 49.49542 | 11.09183 | 1044 ft | 10 kts | 98° |
| 2026-05-07 15:39 | 49.49533 | 11.09279 | 1047 ft | 7 kts | 98° |
| 2026-05-07 15:39 | 49.49532 | 11.09356 | 1050 ft | 8 kts | 76° |
| 2026-05-07 15:40 | 49.49568 | 11.09432 | 1052 ft | 10 kts | 52° |
| 2026-05-07 15:40 | 49.49609 | 11.09515 | 1054 ft | 9 kts | 52° |
| 2026-05-07 15:40 | 49.49654 | 11.09568 | 1056 ft | 8 kts | 18° |
| 2026-05-07 15:40 | 49.49699 | 11.09543 | 1056 ft | 7 kts | 300° |
| 2026-05-07 15:41 | 49.49707 | 11.09449 | 1054 ft | 11 kts | 277° |
| 2026-05-07 15:41 | 49.49737 | 11.09137 | 1048 ft | 65 kts | 278° |
| 2026-05-07 15:41 | 49.49845 | 11.08049 | 1031 ft | 136 kts | 279° |
| 2026-05-07 15:41 | 49.50013 | 11.06486 | 1526 ft | 146 kts | 279° |
| 2026-05-07 15:42 | 49.50180 | 11.04964 | 2239 ft | 148 kts | 280° |
| 2026-05-07 15:42 | 49.50351 | 11.03285 | 2732 ft | 167 kts | 280° |
| 2026-05-07 15:42 | 49.50527 | 11.01416 | 3143 ft | 190 kts | 279° |
| 2026-05-07 15:42 | 49.50729 | 10.99269 | 3549 ft | 215 kts | 279° |
| 2026-05-07 15:43 | 49.50956 | 10.96850 | 4081 ft | 240 kts | 279° |
| 2026-05-07 15:43 | 49.51333 | 10.94287 | 4888 ft | 251 kts | 295° |
| 2026-05-07 15:43 | 49.52544 | 10.92334 | 5808 ft | 261 kts | 331° |
| 2026-05-07 15:43 | 49.54328 | 10.91654 | 6819 ft | 269 kts | 354° |
| 2026-05-07 15:44 | 49.56217 | 10.91702 | 7805 ft | 274 kts | 2° |
| 2026-05-07 15:44 | 49.58133 | 10.91986 | 8758 ft | 279 kts | 4° |
| 2026-05-07 15:44 | 49.60081 | 10.92295 | 9726 ft | 283 kts | 3° |
| 2026-05-07 15:44 | 49.62056 | 10.92544 | 10594 ft | 287 kts | 1° |
| 2026-05-07 15:45 | 49.64118 | 10.92724 | 11064 ft | 308 kts | 0° |
| 2026-05-07 15:45 | 49.66347 | 10.92842 | 11386 ft | 332 kts | 359° |
| 2026-05-07 15:45 | 49.68716 | 10.92912 | 11938 ft | 344 kts | 357° |
| 2026-05-07 15:45 | 49.71097 | 10.92418 | 12686 ft | 347 kts | 343° |
| 2026-05-07 15:46 | 49.75668 | 10.89984 | 14240 ft | 353 kts | 338° |
| 2026-05-07 15:46 | 49.78011 | 10.88727 | 14957 ft | 357 kts | 339° |
| 2026-05-07 15:46 | 49.80376 | 10.87469 | 15666 ft | 361 kts | 339° |
| 2026-05-07 15:47 | 49.82765 | 10.86199 | 16375 ft | 364 kts | 339° |
| 2026-05-07 15:47 | 49.85178 | 10.84913 | 17065 ft | 369 kts | 339° |
| 2026-05-07 15:47 | 49.87618 | 10.83608 | 17764 ft | 373 kts | 339° |
| 2026-05-07 15:47 | 49.90081 | 10.82285 | 18447 ft | 377 kts | 339° |
| 2026-05-07 15:48 | 49.92571 | 10.80944 | 19077 ft | 380 kts | 339° |
| 2026-05-07 15:48 | 49.95082 | 10.79592 | 19713 ft | 383 kts | 340° |
| 2026-05-07 15:48 | 49.97621 | 10.78227 | 20384 ft | 387 kts | 340° |
| 2026-05-07 15:48 | 50.00171 | 10.76852 | 21056 ft | 390 kts | 340° |
| 2026-05-07 15:49 | 50.02760 | 10.75450 | 21666 ft | 394 kts | 340° |
| 2026-05-07 15:49 | 50.05331 | 10.73942 | 22252 ft | 396 kts | 334° |
| 2026-05-07 15:49 | 50.07737 | 10.71821 | 22817 ft | 399 kts | 324° |
| 2026-05-07 15:49 | 50.09875 | 10.69056 | 23361 ft | 402 kts | 315° |
| 2026-05-07 15:50 | 50.11818 | 10.65884 | 23646 ft | 403 kts | 313° |
| 2026-05-07 15:50 | 50.13750 | 10.62702 | 23879 ft | 405 kts | 313° |
| 2026-05-07 15:50 | 50.15695 | 10.59513 | 24019 ft | 408 kts | 313° |
| 2026-05-07 15:50 | 50.17672 | 10.56269 | 24041 ft | 416 kts | 313° |
| 2026-05-07 15:51 | 50.19673 | 10.52974 | 24042 ft | 419 kts | 313° |
| 2026-05-07 15:51 | 50.21681 | 10.49661 | 24050 ft | 419 kts | 313° |
| 2026-05-07 15:51 | 50.23689 | 10.46357 | 24045 ft | 420 kts | 313° |
| 2026-05-07 15:51 | 50.25724 | 10.43058 | 24047 ft | 421 kts | 314° |
| 2026-05-07 15:52 | 50.27773 | 10.39773 | 24044 ft | 421 kts | 314° |
| 2026-05-07 15:52 | 50.29822 | 10.36503 | 24046 ft | 422 kts | 314° |
| 2026-05-07 15:52 | 50.31878 | 10.33211 | 24050 ft | 423 kts | 314° |
| 2026-05-07 15:52 | 50.33934 | 10.29901 | 24050 ft | 424 kts | 314° |
| 2026-05-07 15:53 | 50.35967 | 10.26554 | 24047 ft | 424 kts | 312° |
| 2026-05-07 15:53 | 50.37915 | 10.23082 | 24047 ft | 424 kts | 310° |
| 2026-05-07 15:53 | 50.39873 | 10.19617 | 24052 ft | 424 kts | 311° |
| 2026-05-07 15:53 | 50.41877 | 10.16212 | 24050 ft | 424 kts | 313° |
| 2026-05-07 15:54 | 50.43918 | 10.12861 | 24047 ft | 425 kts | 313° |
| 2026-05-07 15:54 | 50.45937 | 10.09541 | 24047 ft | 425 kts | 313° |
| 2026-05-07 15:54 | 50.47988 | 10.06113 | 24050 ft | 425 kts | 312° |
| 2026-05-07 15:54 | 50.49971 | 10.02753 | 24046 ft | 425 kts | 312° |
| 2026-05-07 15:55 | 50.51973 | 9.99324 | 24044 ft | 425 kts | 312° |
| 2026-05-07 15:55 | 50.53965 | 9.95890 | 24047 ft | 425 kts | 311° |
| 2026-05-07 15:55 | 50.55924 | 9.92398 | 24047 ft | 425 kts | 310° |
| 2026-05-07 15:55 | 50.57828 | 9.88843 | 24046 ft | 425 kts | 309° |
| 2026-05-07 15:56 | 50.59704 | 9.85234 | 24047 ft | 425 kts | 308° |
| 2026-05-07 15:56 | 50.61568 | 9.81612 | 24037 ft | 425 kts | 308° |
| 2026-05-07 15:56 | 50.63433 | 9.77989 | 24039 ft | 425 kts | 308° |
| 2026-05-07 15:56 | 50.65303 | 9.74373 | 24036 ft | 425 kts | 309° |
| 2026-05-07 15:57 | 50.67188 | 9.70761 | 24038 ft | 425 kts | 309° |
| 2026-05-07 15:57 | 50.69084 | 9.67148 | 24038 ft | 425 kts | 309° |
| 2026-05-07 15:57 | 50.70934 | 9.63518 | 24034 ft | 425 kts | 305° |
| 2026-05-07 15:57 | 50.72445 | 9.59503 | 24037 ft | 425 kts | 295° |
| 2026-05-07 15:58 | 50.73507 | 9.55159 | 24040 ft | 425 kts | 286° |
| 2026-05-07 15:58 | 50.74177 | 9.50614 | 24041 ft | 424 kts | 282° |
| 2026-05-07 15:58 | 50.74789 | 9.46057 | 24043 ft | 424 kts | 282° |
| 2026-05-07 15:58 | 50.75404 | 9.41497 | 24045 ft | 424 kts | 282° |
| 2026-05-07 15:59 | 50.76016 | 9.36999 | 24044 ft | 424 kts | 282° |
| 2026-05-07 15:59 | 50.76644 | 9.32392 | 24046 ft | 423 kts | 282° |
| 2026-05-07 15:59 | 50.77256 | 9.27887 | 24046 ft | 423 kts | 282° |
| 2026-05-07 15:59 | 50.77872 | 9.23334 | 24054 ft | 423 kts | 282° |
| 2026-05-07 16:00 | 50.78484 | 9.18781 | 24055 ft | 423 kts | 282° |
| 2026-05-07 16:00 | 50.79092 | 9.14243 | 24055 ft | 422 kts | 282° |
| 2026-05-07 16:00 | 50.79704 | 9.09691 | 24057 ft | 422 kts | 282° |
| 2026-05-07 16:00 | 50.80314 | 9.05157 | 24058 ft | 422 kts | 282° |
| 2026-05-07 16:01 | 50.80920 | 9.00608 | 24055 ft | 422 kts | 282° |
| 2026-05-07 16:01 | 50.81324 | 8.97540 | 24055 ft | 422 kts | 282° |
| 2026-05-07 16:01 | 50.81919 | 8.92993 | 24058 ft | 421 kts | 282° |
| 2026-05-07 16:01 | 50.82686 | 8.88529 | 24058 ft | 421 kts | 289° |
| 2026-05-07 16:02 | 50.83878 | 8.84305 | 24057 ft | 421 kts | 297° |
| 2026-05-07 16:02 | 50.85251 | 8.80199 | 24062 ft | 421 kts | 297° |
| 2026-05-07 16:02 | 50.86629 | 8.76105 | 24063 ft | 421 kts | 297° |
| 2026-05-07 16:02 | 50.88004 | 8.72020 | 24065 ft | 421 kts | 297° |
| 2026-05-07 16:03 | 50.89395 | 8.67869 | 24062 ft | 421 kts | 297° |
| 2026-05-07 16:03 | 50.90739 | 8.63831 | 24063 ft | 420 kts | 297° |
| 2026-05-07 16:03 | 50.92120 | 8.59667 | 24061 ft | 420 kts | 297° |
| 2026-05-07 16:03 | 50.93473 | 8.55568 | 24060 ft | 420 kts | 297° |
| 2026-05-07 16:04 | 50.94827 | 8.51454 | 24055 ft | 420 kts | 297° |
| 2026-05-07 16:04 | 50.96183 | 8.47336 | 24053 ft | 420 kts | 297° |
| 2026-05-07 16:04 | 50.97535 | 8.43216 | 24056 ft | 420 kts | 297° |
| 2026-05-07 16:04 | 50.98885 | 8.39092 | 24059 ft | 420 kts | 297° |
| 2026-05-07 16:05 | 51.00333 | 8.35072 | 24057 ft | 421 kts | 303° |
| 2026-05-07 16:05 | 51.02179 | 8.31450 | 23928 ft | 421 kts | 313° |
| 2026-05-07 16:05 | 51.04386 | 8.28409 | 23578 ft | 420 kts | 323° |
| 2026-05-07 16:05 | 51.06884 | 8.25999 | 23082 ft | 419 kts | 330° |
| 2026-05-07 16:06 | 51.09431 | 8.23770 | 22589 ft | 416 kts | 329° |
| 2026-05-07 16:06 | 51.11986 | 8.21505 | 22104 ft | 413 kts | 329° |
| 2026-05-07 16:06 | 51.14480 | 8.19275 | 21625 ft | 410 kts | 329° |
| 2026-05-07 16:06 | 51.16959 | 8.17046 | 21157 ft | 407 kts | 329° |
| 2026-05-07 16:07 | 51.19426 | 8.14823 | 20696 ft | 405 kts | 329° |
| 2026-05-07 16:07 | 51.21873 | 8.12620 | 20241 ft | 402 kts | 329° |
| 2026-05-07 16:07 | 51.24305 | 8.10434 | 19792 ft | 399 kts | 329° |
| 2026-05-07 16:07 | 51.26723 | 8.08265 | 19348 ft | 397 kts | 329° |
| 2026-05-07 16:08 | 51.29126 | 8.06112 | 18920 ft | 394 kts | 329° |
| 2026-05-07 16:08 | 51.31513 | 8.03969 | 18490 ft | 392 kts | 329° |
| 2026-05-07 16:08 | 51.33856 | 8.01863 | 18029 ft | 390 kts | 329° |
| 2026-05-07 16:08 | 51.36202 | 7.99718 | 17540 ft | 386 kts | 326° |
| 2026-05-07 16:09 | 51.38223 | 7.96942 | 17066 ft | 380 kts | 309° |
| 2026-05-07 16:09 | 51.39621 | 7.93390 | 16593 ft | 376 kts | 292° |
| 2026-05-07 16:09 | 51.40280 | 7.89378 | 16221 ft | 373 kts | 276° |
| 2026-05-07 16:09 | 51.40497 | 7.85250 | 15866 ft | 372 kts | 274° |
| 2026-05-07 16:10 | 51.40698 | 7.81120 | 15513 ft | 370 kts | 274° |
| 2026-05-07 16:10 | 51.40893 | 7.77019 | 15168 ft | 368 kts | 274° |
| 2026-05-07 16:10 | 51.41082 | 7.72930 | 14821 ft | 367 kts | 274° |
| 2026-05-07 16:10 | 51.41270 | 7.68853 | 14481 ft | 365 kts | 274° |
| 2026-05-07 16:11 | 51.41455 | 7.64805 | 14146 ft | 363 kts | 274° |
| 2026-05-07 16:11 | 51.41641 | 7.60769 | 13802 ft | 362 kts | 274° |
| 2026-05-07 16:11 | 51.41826 | 7.56750 | 13426 ft | 360 kts | 274° |
| 2026-05-07 16:11 | 51.42002 | 7.52753 | 13068 ft | 358 kts | 273° |
| 2026-05-07 16:12 | 51.42094 | 7.48770 | 12775 ft | 357 kts | 271° |
| 2026-05-07 16:12 | 51.42120 | 7.44793 | 12513 ft | 355 kts | 270° |
| 2026-05-07 16:12 | 51.42117 | 7.40842 | 12251 ft | 354 kts | 270° |
| 2026-05-07 16:12 | 51.42109 | 7.36897 | 11992 ft | 353 kts | 270° |
| 2026-05-07 16:13 | 51.42106 | 7.32964 | 11739 ft | 352 kts | 270° |
| 2026-05-07 16:13 | 51.42112 | 7.29045 | 11481 ft | 351 kts | 270° |
| 2026-05-07 16:13 | 51.42124 | 7.25146 | 11227 ft | 350 kts | 270° |
| 2026-05-07 16:13 | 51.41986 | 7.21260 | 10971 ft | 349 kts | 261° |
| 2026-05-07 16:14 | 51.41323 | 7.17523 | 10735 ft | 347 kts | 248° |
| 2026-05-07 16:14 | 51.40181 | 7.14199 | 10472 ft | 335 kts | 235° |
| 2026-05-07 16:14 | 51.38679 | 7.11426 | 10226 ft | 325 kts | 226° |
| 2026-05-07 16:14 | 51.37121 | 7.08867 | 9984 ft | 315 kts | 227° |
| 2026-05-07 16:15 | 51.35590 | 7.06343 | 9720 ft | 307 kts | 227° |
| 2026-05-07 16:15 | 51.34137 | 7.03940 | 9550 ft | 296 kts | 227° |
| 2026-05-07 16:15 | 51.32730 | 7.01616 | 9414 ft | 285 kts | 227° |
| 2026-05-07 16:15 | 51.31376 | 6.99384 | 9277 ft | 274 kts | 227° |
| 2026-05-07 16:16 | 51.30064 | 6.97224 | 9030 ft | 268 kts | 227° |
| 2026-05-07 16:16 | 51.28772 | 6.95093 | 8760 ft | 263 kts | 227° |
| 2026-05-07 16:16 | 51.27511 | 6.93015 | 8503 ft | 258 kts | 227° |
| 2026-05-07 16:16 | 51.26267 | 6.90968 | 8188 ft | 255 kts | 227° |
| 2026-05-07 16:17 | 51.25029 | 6.88942 | 7882 ft | 252 kts | 227° |
| 2026-05-07 16:17 | 51.23810 | 6.86953 | 7577 ft | 249 kts | 227° |
| 2026-05-07 16:17 | 51.22603 | 6.84982 | 7271 ft | 247 kts | 227° |
| 2026-05-07 16:17 | 51.21402 | 6.83021 | 6981 ft | 245 kts | 227° |
| 2026-05-07 16:18 | 51.20248 | 6.80994 | 6734 ft | 244 kts | 234° |
| 2026-05-07 16:18 | 51.19226 | 6.78835 | 6487 ft | 243 kts | 234° |
| 2026-05-07 16:18 | 51.18206 | 6.76697 | 6229 ft | 242 kts | 234° |
| 2026-05-07 16:18 | 51.17181 | 6.74547 | 5962 ft | 241 kts | 234° |
| 2026-05-07 16:19 | 51.16173 | 6.72420 | 5706 ft | 241 kts | 234° |
| 2026-05-07 16:19 | 51.15165 | 6.70295 | 5447 ft | 240 kts | 234° |
| 2026-05-07 16:19 | 51.14154 | 6.68167 | 5183 ft | 239 kts | 234° |
| 2026-05-07 16:19 | 51.13138 | 6.66028 | 4929 ft | 239 kts | 234° |
| 2026-05-07 16:20 | 51.12142 | 6.63921 | 4670 ft | 238 kts | 234° |
| 2026-05-07 16:20 | 51.11151 | 6.61824 | 4408 ft | 235 kts | 234° |
| 2026-05-07 16:20 | 51.10283 | 6.59665 | 4183 ft | 226 kts | 252° |
| 2026-05-07 16:20 | 51.10192 | 6.57274 | 3976 ft | 214 kts | 288° |
| 2026-05-07 16:21 | 51.10947 | 6.55334 | 3778 ft | 206 kts | 318° |
| 2026-05-07 16:21 | 51.11669 | 6.54363 | 3650 ft | 205 kts | 326° |
| 2026-05-07 16:21 | 51.12893 | 6.53224 | 3439 ft | 203 kts | 345° |
| 2026-05-07 16:21 | 51.14281 | 6.53189 | 3250 ft | 202 kts | 10° |
| 2026-05-07 16:22 | 51.15655 | 6.53631 | 3078 ft | 198 kts | 13° |
| 2026-05-07 16:22 | 51.16942 | 6.54300 | 3004 ft | 192 kts | 21° |
| 2026-05-07 16:22 | 51.18177 | 6.55180 | 3001 ft | 192 kts | 34° |
| 2026-05-07 16:22 | 51.19095 | 6.56687 | 3002 ft | 188 kts | 52° |
| 2026-05-07 16:23 | 51.19884 | 6.58333 | 2871 ft | 186 kts | 52° |
| 2026-05-07 16:23 | 51.20668 | 6.59966 | 2682 ft | 181 kts | 51° |
| 2026-05-07 16:23 | 51.21421 | 6.61536 | 2418 ft | 175 kts | 52° |
| 2026-05-07 16:23 | 51.22142 | 6.63039 | 2176 ft | 165 kts | 52° |
| 2026-05-07 16:24 | 51.22794 | 6.64397 | 1976 ft | 146 kts | 52° |
| 2026-05-07 16:24 | 51.23386 | 6.65631 | 1785 ft | 133 kts | 52° |
| 2026-05-07 16:24 | 51.23934 | 6.66775 | 1592 ft | 128 kts | 51° |
| 2026-05-07 16:24 | 51.24478 | 6.67910 | 1425 ft | 129 kts | 52° |
| 2026-05-07 16:25 | 51.25022 | 6.69046 | 1253 ft | 129 kts | 51° |
| 2026-05-07 16:25 | 51.25563 | 6.70178 | 1053 ft | 127 kts | 51° |
| 2026-05-07 16:25 | 51.26101 | 6.71304 | 854 ft | 128 kts | 51° |
| 2026-05-07 16:25 | 51.26647 | 6.72447 | 664 ft | 130 kts | 51° |
| 2026-05-07 16:26 | 51.27200 | 6.73604 | 479 ft | 131 kts | 51° |
| 2026-05-07 16:26 | 51.27756 | 6.74771 | 293 ft | 131 kts | 52° |
| 2026-05-07 16:26 | 51.28307 | 6.75934 | 122 ft | 129 kts | 52° |
| 2026-05-07 16:26 | 51.28769 | 6.76894 | 118 ft | 85 kts | 53° |
| 2026-05-07 16:27 | 51.28993 | 6.77367 | 116 ft | 24 kts | 57° |
| 2026-05-07 16:27 | 51.29009 | 6.77558 | 118 ft | 14 kts | 123° |
| 2026-05-07 16:27 | 51.28946 | 6.77644 | 118 ft | 7 kts | 145° |
| 2026-05-07 16:27 | 51.28940 | 6.77650 | 118 ft | 1 kts | 148° |
| 2026-05-07 16:28 | 51.28927 | 6.77657 | 117 ft | 2 kts | 167° |
| 2026-05-07 16:28 | 51.28907 | 6.77650 | 118 ft | 3 kts | 202° |
| 2026-05-07 16:28 | 51.28889 | 6.77618 | 118 ft | 4 kts | 237° |
| 2026-05-07 16:28 | 51.28870 | 6.77573 | 115 ft | 5 kts | 233° |
| 2026-05-07 16:29 | 51.28844 | 6.77520 | 117 ft | 7 kts | 232° |
| 2026-05-07 16:29 | 51.28814 | 6.77458 | 118 ft | 8 kts | 232° |
| 2026-05-07 16:29 | 51.28779 | 6.77385 | 118 ft | 9 kts | 233° |
| 2026-05-07 16:29 | 51.28737 | 6.77295 | 115 ft | 11 kts | 233° |
| 2026-05-07 16:30 | 51.28688 | 6.77194 | 117 ft | 12 kts | 232° |
| 2026-05-07 16:30 | 51.28637 | 6.77084 | 118 ft | 13 kts | 233° |
| 2026-05-07 16:30 | 51.28580 | 6.76965 | 117 ft | 14 kts | 233° |
| 2026-05-07 16:30 | 51.28521 | 6.76839 | 118 ft | 14 kts | 233° |
| 2026-05-07 16:31 | 51.28456 | 6.76775 | 118 ft | 11 kts | 171° |
| 2026-05-07 16:31 | 51.28389 | 6.76847 | 117 ft | 12 kts | 145° |
| 2026-05-07 16:31 | 51.28325 | 6.76865 | 118 ft | 8 kts | 185° |
| 2026-05-07 16:31 | 51.28262 | 6.76853 | 118 ft | 10 kts | 187° |
| 2026-05-07 16:32 | 51.28193 | 6.76840 | 118 ft | 11 kts | 186° |
| 2026-05-07 16:32 | 51.28120 | 6.76818 | 116 ft | 9 kts | 197° |
| 2026-05-07 16:32 | 51.28071 | 6.76793 | 118 ft | 6 kts | 206° |
| 2026-05-07 16:32 | 51.28058 | 6.76734 | 116 ft | 3 kts | 274° |
| 2026-05-07 16:33 | 51.28059 | 6.76713 | 115 ft | 0 kts | 274° |